sensor_id;sensor_type;location;lat;lon;timestamp;P1;durP1;ratioP1;P2;durP2;ratioP2
63534;SDS011;55128;50.230;18.944;2023-02-08T00:01:57;65.55;;;34.50;;
63534;SDS011;55128;50.230;18.944;2023-02-08T00:07:04;73.85;;;39.30;;
63534;SDS011;55128;50.230;18.944;2023-02-08T00:12:48;68.40;;;34.80;;
63534;SDS011;55128;50.230;18.944;2023-02-08T00:17:54;71.82;;;34.88;;
63534;SDS011;55128;50.230;18.944;2023-02-08T00:22:55;72.45;;;35.88;;
63534;SDS011;55128;50.230;18.944;2023-02-08T00:27:59;66.95;;;32.90;;
63534;SDS011;55128;50.230;18.944;2023-02-08T00:33:00;67.28;;;36.50;;
63534;SDS011;55128;50.230;18.944;2023-02-08T00:38:01;75.03;;;34.72;;
63534;SDS011;55128;50.230;18.944;2023-02-08T00:43:04;69.63;;;35.47;;
63534;SDS011;55128;50.230;18.944;2023-02-08T00:48:13;70.05;;;35.88;;
63534;SDS011;55128;50.230;18.944;2023-02-08T00:53:21;86.85;;;39.25;;
63534;SDS011;55128;50.230;18.944;2023-02-08T00:58:32;82.15;;;38.72;;
63534;SDS011;55128;50.230;18.944;2023-02-08T01:03:42;82.80;;;40.42;;
63534;SDS011;55128;50.230;18.944;2023-02-08T01:08:51;78.68;;;37.92;;
63534;SDS011;55128;50.230;18.944;2023-02-08T01:14:03;78.30;;;38.22;;
63534;SDS011;55128;50.230;18.944;2023-02-08T01:19:31;82.60;;;38.13;;
63534;SDS011;55128;50.230;18.944;2023-02-08T01:24:46;75.43;;;39.25;;
63534;SDS011;55128;50.230;18.944;2023-02-08T01:30:03;73.85;;;36.20;;
63534;SDS011;55128;50.230;18.944;2023-02-08T01:35:12;77.32;;;38.55;;
63534;SDS011;55128;50.230;18.944;2023-02-08T01:40:20;80.18;;;37.55;;
63534;SDS011;55128;50.230;18.944;2023-02-08T01:45:39;73.35;;;37.15;;
63534;SDS011;55128;50.230;18.944;2023-02-08T01:50:47;72.03;;;35.67;;
63534;SDS011;55128;50.230;18.944;2023-02-08T01:56:11;73.30;;;37.10;;
63534;SDS011;55128;50.230;18.944;2023-02-08T02:01:24;70.88;;;34.65;;
63534;SDS011;55128;50.230;18.944;2023-02-08T02:06:52;72.03;;;36.80;;
63534;SDS011;55128;50.230;18.944;2023-02-08T02:12:05;82.53;;;38.95;;
63534;SDS011;55128;50.230;18.944;2023-02-08T02:17:14;74.72;;;37.65;;
63534;SDS011;55128;50.230;18.944;2023-02-08T02:28:31;76.65;;;36.80;;
63534;SDS011;55128;50.230;18.944;2023-02-08T02:34:08;69.85;;;35.80;;
63534;SDS011;55128;50.230;18.944;2023-02-08T02:39:45;51.70;;;27.85;;
63534;SDS011;55128;50.230;18.944;2023-02-08T02:45:32;67.55;;;35.55;;
63534;SDS011;55128;50.230;18.944;2023-02-08T02:50:50;73.45;;;36.33;;
63534;SDS011;55128;50.230;18.944;2023-02-08T02:56:11;71.90;;;35.72;;
63534;SDS011;55128;50.230;18.944;2023-02-08T03:01:23;70.75;;;37.75;;
63534;SDS011;55128;50.230;18.944;2023-02-08T03:06:38;68.32;;;34.60;;
63534;SDS011;55128;50.230;18.944;2023-02-08T03:11:42;56.17;;;30.60;;
63534;SDS011;55128;50.230;18.944;2023-02-08T03:32:42;56.70;;;31.15;;
63534;SDS011;55128;50.230;18.944;2023-02-08T03:38:02;58.00;;;33.92;;
63534;SDS011;55128;50.230;18.944;2023-02-08T03:43:25;58.78;;;31.23;;
63534;SDS011;55128;50.230;18.944;2023-02-08T03:48:41;58.88;;;29.75;;
63534;SDS011;55128;50.230;18.944;2023-02-08T03:53:59;59.95;;;30.67;;
63534;SDS011;55128;50.230;18.944;2023-02-08T03:59:03;61.63;;;32.67;;
63534;SDS011;55128;50.230;18.944;2023-02-08T04:04:08;64.70;;;37.35;;
63534;SDS011;55128;50.230;18.944;2023-02-08T04:09:10;61.08;;;33.10;;
63534;SDS011;55128;50.230;18.944;2023-02-08T04:14:24;56.13;;;30.53;;
63534;SDS011;55128;50.230;18.944;2023-02-08T04:19:50;68.85;;;33.78;;
63534;SDS011;55128;50.230;18.944;2023-02-08T04:25:25;63.30;;;32.72;;
63534;SDS011;55128;50.230;18.944;2023-02-08T04:30:43;75.78;;;52.88;;
63534;SDS011;55128;50.230;18.944;2023-02-08T04:36:06;65.60;;;34.22;;
63534;SDS011;55128;50.230;18.944;2023-02-08T04:41:10;88.35;;;34.40;;
63534;SDS011;55128;50.230;18.944;2023-02-08T04:46:11;105.32;;;40.97;;
63534;SDS011;55128;50.230;18.944;2023-02-08T04:51:19;85.22;;;37.72;;
63534;SDS011;55128;50.230;18.944;2023-02-08T04:56:51;100.53;;;45.20;;
63534;SDS011;55128;50.230;18.944;2023-02-08T05:02:08;80.10;;;36.92;;
63534;SDS011;55128;50.230;18.944;2023-02-08T05:07:44;83.53;;;39.33;;
63534;SDS011;55128;50.230;18.944;2023-02-08T05:12:53;74.20;;;36.85;;
63534;SDS011;55128;50.230;18.944;2023-02-08T05:17:53;84.60;;;38.17;;
63534;SDS011;55128;50.230;18.944;2023-02-08T05:23:06;53.33;;;28.95;;
63534;SDS011;55128;50.230;18.944;2023-02-08T05:28:22;55.15;;;28.92;;
63534;SDS011;55128;50.230;18.944;2023-02-08T05:33:25;52.67;;;26.90;;
63534;SDS011;55128;50.230;18.944;2023-02-08T05:38:59;74.55;;;31.58;;
63534;SDS011;55128;50.230;18.944;2023-02-08T05:44:07;59.15;;;31.00;;
63534;SDS011;55128;50.230;18.944;2023-02-08T05:49:22;56.80;;;28.10;;
63534;SDS011;55128;50.230;18.944;2023-02-08T05:55:18;50.92;;;25.83;;
63534;SDS011;55128;50.230;18.944;2023-02-08T06:00:56;57.00;;;29.10;;
63534;SDS011;55128;50.230;18.944;2023-02-08T06:06:03;50.72;;;27.13;;
63534;SDS011;55128;50.230;18.944;2023-02-08T06:11:33;51.65;;;30.05;;
63534;SDS011;55128;50.230;18.944;2023-02-08T06:16:42;52.00;;;27.30;;
63534;SDS011;55128;50.230;18.944;2023-02-08T06:22:07;52.53;;;27.85;;
63534;SDS011;55128;50.230;18.944;2023-02-08T06:27:34;58.03;;;27.50;;
63534;SDS011;55128;50.230;18.944;2023-02-08T06:32:38;55.58;;;29.10;;
63534;SDS011;55128;50.230;18.944;2023-02-08T06:37:51;61.25;;;32.05;;
63534;SDS011;55128;50.230;18.944;2023-02-08T06:43:06;67.43;;;37.35;;
63534;SDS011;55128;50.230;18.944;2023-02-08T06:48:31;57.05;;;30.20;;
63534;SDS011;55128;50.230;18.944;2023-02-08T06:59:37;53.63;;;29.30;;
63534;SDS011;55128;50.230;18.944;2023-02-08T07:04:40;56.55;;;29.77;;
63534;SDS011;55128;50.230;18.944;2023-02-08T07:10:08;50.63;;;29.02;;
63534;SDS011;55128;50.230;18.944;2023-02-08T07:15:10;60.80;;;30.55;;
63534;SDS011;55128;50.230;18.944;2023-02-08T07:20:15;57.65;;;30.25;;
63534;SDS011;55128;50.230;18.944;2023-02-08T07:25:23;49.97;;;26.63;;
63534;SDS011;55128;50.230;18.944;2023-02-08T07:30:33;49.35;;;27.52;;
63534;SDS011;55128;50.230;18.944;2023-02-08T07:35:54;51.40;;;24.85;;
63534;SDS011;55128;50.230;18.944;2023-02-08T07:41:28;41.20;;;22.90;;
63534;SDS011;55128;50.230;18.944;2023-02-08T07:46:54;48.45;;;26.20;;
63534;SDS011;55128;50.230;18.944;2023-02-08T07:52:12;42.00;;;23.27;;
63534;SDS011;55128;50.230;18.944;2023-02-08T07:57:45;45.75;;;23.63;;
63534;SDS011;55128;50.230;18.944;2023-02-08T08:02:59;44.73;;;24.10;;
63534;SDS011;55128;50.230;18.944;2023-02-08T08:25:21;36.38;;;19.40;;
63534;SDS011;55128;50.230;18.944;2023-02-08T08:31:19;36.97;;;19.58;;
63534;SDS011;55128;50.230;18.944;2023-02-08T08:36:46;29.92;;;15.48;;
63534;SDS011;55128;50.230;18.944;2023-02-08T08:42:22;32.35;;;16.52;;
63534;SDS011;55128;50.230;18.944;2023-02-08T08:48:36;25.80;;;15.00;;
63534;SDS011;55128;50.230;18.944;2023-02-08T08:54:45;28.40;;;15.20;;
63534;SDS011;55128;50.230;18.944;2023-02-08T09:12:08;23.55;;;13.50;;
63534;SDS011;55128;50.230;18.944;2023-02-08T09:18:11;26.10;;;14.38;;
63534;SDS011;55128;50.230;18.944;2023-02-08T09:23:29;26.80;;;15.13;;
63534;SDS011;55128;50.230;18.944;2023-02-08T09:28:30;31.42;;;17.65;;
63534;SDS011;55128;50.230;18.944;2023-02-08T09:33:30;30.00;;;16.38;;
63534;SDS011;55128;50.230;18.944;2023-02-08T09:38:31;28.75;;;15.93;;
63534;SDS011;55128;50.230;18.944;2023-02-08T09:48:51;25.55;;;13.80;;
63534;SDS011;55128;50.230;18.944;2023-02-08T09:53:57;26.83;;;13.68;;
63534;SDS011;55128;50.230;18.944;2023-02-08T09:59:01;24.45;;;13.80;;
63534;SDS011;55128;50.230;18.944;2023-02-08T10:09:30;23.73;;;13.23;;
63534;SDS011;55128;50.230;18.944;2023-02-08T10:25:44;27.60;;;13.80;;
63534;SDS011;55128;50.230;18.944;2023-02-08T10:31:05;22.75;;;13.07;;
63534;SDS011;55128;50.230;18.944;2023-02-08T10:36:24;21.48;;;13.05;;
63534;SDS011;55128;50.230;18.944;2023-02-08T10:41:32;20.67;;;12.20;;
63534;SDS011;55128;50.230;18.944;2023-02-08T10:52:12;17.83;;;10.07;;
63534;SDS011;55128;50.230;18.944;2023-02-08T10:57:16;20.00;;;10.23;;
63534;SDS011;55128;50.230;18.944;2023-02-08T11:02:26;20.13;;;11.18;;
63534;SDS011;55128;50.230;18.944;2023-02-08T11:07:30;20.15;;;11.30;;
63534;SDS011;55128;50.230;18.944;2023-02-08T11:12:31;22.40;;;13.13;;
63534;SDS011;55128;50.230;18.944;2023-02-08T11:17:32;27.38;;;14.02;;
63534;SDS011;55128;50.230;18.944;2023-02-08T11:22:33;20.73;;;12.30;;
63534;SDS011;55128;50.230;18.944;2023-02-08T11:27:34;22.05;;;12.85;;
63534;SDS011;55128;50.230;18.944;2023-02-08T11:32:39;19.17;;;10.13;;
63534;SDS011;55128;50.230;18.944;2023-02-08T11:37:44;17.65;;;9.45;;
63534;SDS011;55128;50.230;18.944;2023-02-08T11:42:46;19.27;;;9.73;;
63534;SDS011;55128;50.230;18.944;2023-02-08T11:47:46;18.60;;;9.88;;
63534;SDS011;55128;50.230;18.944;2023-02-08T11:52:50;14.60;;;8.43;;
63534;SDS011;55128;50.230;18.944;2023-02-08T12:03:17;20.35;;;9.70;;
63534;SDS011;55128;50.230;18.944;2023-02-08T12:14:08;16.65;;;9.02;;
63534;SDS011;55128;50.230;18.944;2023-02-08T12:30:18;18.83;;;9.75;;
63534;SDS011;55128;50.230;18.944;2023-02-08T12:40:57;24.92;;;10.82;;
63534;SDS011;55128;50.230;18.944;2023-02-08T12:51:27;22.27;;;10.68;;
63534;SDS011;55128;50.230;18.944;2023-02-08T12:56:49;23.08;;;13.00;;
63534;SDS011;55128;50.230;18.944;2023-02-08T13:01:51;23.25;;;11.45;;
63534;SDS011;55128;50.230;18.944;2023-02-08T13:07:00;22.13;;;11.30;;
63534;SDS011;55128;50.230;18.944;2023-02-08T13:12:05;20.15;;;10.07;;
63534;SDS011;55128;50.230;18.944;2023-02-08T13:22:26;22.38;;;10.75;;
63534;SDS011;55128;50.230;18.944;2023-02-08T13:27:30;22.20;;;11.82;;
63534;SDS011;55128;50.230;18.944;2023-02-08T13:32:35;22.13;;;12.02;;
63534;SDS011;55128;50.230;18.944;2023-02-08T13:37:40;27.95;;;14.43;;
63534;SDS011;55128;50.230;18.944;2023-02-08T13:42:42;25.02;;;13.57;;
63534;SDS011;55128;50.230;18.944;2023-02-08T13:47:48;27.85;;;14.25;;
63534;SDS011;55128;50.230;18.944;2023-02-08T13:52:55;28.15;;;13.77;;
63534;SDS011;55128;50.230;18.944;2023-02-08T13:57:56;29.23;;;14.48;;
63534;SDS011;55128;50.230;18.944;2023-02-08T14:08:06;24.63;;;14.18;;
63534;SDS011;55128;50.230;18.944;2023-02-08T14:19:02;26.80;;;13.27;;
63534;SDS011;55128;50.230;18.944;2023-02-08T14:24:58;25.92;;;14.70;;
63534;SDS011;55128;50.230;18.944;2023-02-08T14:29:33;36.28;;;19.20;;
63534;SDS011;55128;50.230;18.944;2023-02-08T14:34:34;25.40;;;15.60;;
63534;SDS011;55128;50.230;18.944;2023-02-08T14:49:42;29.83;;;15.18;;
63534;SDS011;55128;50.230;18.944;2023-02-08T14:54:48;27.45;;;14.80;;
63534;SDS011;55128;50.230;18.944;2023-02-08T14:59:54;29.95;;;14.52;;
63534;SDS011;55128;50.230;18.944;2023-02-08T15:04:59;26.73;;;14.00;;
63534;SDS011;55128;50.230;18.944;2023-02-08T15:10:03;25.42;;;13.68;;
63534;SDS011;55128;50.230;18.944;2023-02-08T15:15:06;30.40;;;14.48;;
63534;SDS011;55128;50.230;18.944;2023-02-08T15:20:23;27.15;;;15.05;;
63534;SDS011;55128;50.230;18.944;2023-02-08T15:25:32;31.85;;;16.05;;
63534;SDS011;55128;50.230;18.944;2023-02-08T15:30:36;31.40;;;17.15;;
63534;SDS011;55128;50.230;18.944;2023-02-08T15:35:38;49.58;;;31.25;;
63534;SDS011;55128;50.230;18.944;2023-02-08T15:40:38;34.63;;;18.15;;
63534;SDS011;55128;50.230;18.944;2023-02-08T15:45:39;35.75;;;18.55;;
63534;SDS011;55128;50.230;18.944;2023-02-08T15:50:39;37.17;;;19.67;;
63534;SDS011;55128;50.230;18.944;2023-02-08T15:55:43;39.50;;;19.98;;
63534;SDS011;55128;50.230;18.944;2023-02-08T16:00:47;39.13;;;20.33;;
63534;SDS011;55128;50.230;18.944;2023-02-08T16:05:49;55.05;;;29.73;;
63534;SDS011;55128;50.230;18.944;2023-02-08T16:10:51;42.17;;;21.58;;
63534;SDS011;55128;50.230;18.944;2023-02-08T16:15:55;164.50;;;60.70;;
63534;SDS011;55128;50.230;18.944;2023-02-08T16:26:29;110.57;;;55.05;;
63534;SDS011;55128;50.230;18.944;2023-02-08T16:31:35;115.95;;;44.30;;
63534;SDS011;55128;50.230;18.944;2023-02-08T16:36:38;68.35;;;32.10;;
63534;SDS011;55128;50.230;18.944;2023-02-08T16:46:56;48.72;;;22.92;;
63534;SDS011;55128;50.230;18.944;2023-02-08T16:51:58;39.50;;;19.63;;
63534;SDS011;55128;50.230;18.944;2023-02-08T16:56:59;39.85;;;19.98;;
63534;SDS011;55128;50.230;18.944;2023-02-08T17:02:00;40.00;;;21.42;;
63534;SDS011;55128;50.230;18.944;2023-02-08T17:07:01;49.65;;;26.13;;
63534;SDS011;55128;50.230;18.944;2023-02-08T17:12:01;130.25;;;51.25;;
63534;SDS011;55128;50.230;18.944;2023-02-08T17:17:08;112.22;;;49.42;;
63534;SDS011;55128;50.230;18.944;2023-02-08T17:22:09;83.70;;;37.17;;
63534;SDS011;55128;50.230;18.944;2023-02-08T17:27:12;184.68;;;97.95;;
63534;SDS011;55128;50.230;18.944;2023-02-08T17:32:13;64.95;;;33.67;;
63534;SDS011;55128;50.230;18.944;2023-02-08T17:37:13;60.70;;;29.97;;
63534;SDS011;55128;50.230;18.944;2023-02-08T17:42:14;51.05;;;25.95;;
63534;SDS011;55128;50.230;18.944;2023-02-08T17:47:14;50.58;;;27.63;;
63534;SDS011;55128;50.230;18.944;2023-02-08T17:52:14;77.68;;;33.28;;
63534;SDS011;55128;50.230;18.944;2023-02-08T17:57:15;114.70;;;46.78;;
63534;SDS011;55128;50.230;18.944;2023-02-08T18:02:16;113.93;;;47.53;;
63534;SDS011;55128;50.230;18.944;2023-02-08T18:07:17;143.50;;;59.40;;
63534;SDS011;55128;50.230;18.944;2023-02-08T18:12:18;183.63;;;76.45;;
63534;SDS011;55128;50.230;18.944;2023-02-08T18:17:19;212.27;;;90.50;;
63534;SDS011;55128;50.230;18.944;2023-02-08T18:22:19;92.10;;;47.50;;
63534;SDS011;55128;50.230;18.944;2023-02-08T18:27:20;79.15;;;39.03;;
63534;SDS011;55128;50.230;18.944;2023-02-08T18:32:21;96.30;;;47.40;;
63534;SDS011;55128;50.230;18.944;2023-02-08T18:37:22;87.10;;;48.13;;
63534;SDS011;55128;50.230;18.944;2023-02-08T18:42:22;109.55;;;49.60;;
63534;SDS011;55128;50.230;18.944;2023-02-08T18:47:22;82.03;;;38.35;;
63534;SDS011;55128;50.230;18.944;2023-02-08T18:52:23;102.10;;;46.17;;
63534;SDS011;55128;50.230;18.944;2023-02-08T18:57:23;122.80;;;49.55;;
63534;SDS011;55128;50.230;18.944;2023-02-08T19:02:24;162.32;;;72.10;;
63534;SDS011;55128;50.230;18.944;2023-02-08T19:07:25;176.77;;;72.25;;
63534;SDS011;55128;50.230;18.944;2023-02-08T19:12:25;108.65;;;52.03;;
63534;SDS011;55128;50.230;18.944;2023-02-08T19:17:26;97.45;;;47.10;;
63534;SDS011;55128;50.230;18.944;2023-02-08T19:22:26;109.15;;;49.22;;
63534;SDS011;55128;50.230;18.944;2023-02-08T19:27:26;133.15;;;63.53;;
63534;SDS011;55128;50.230;18.944;2023-02-08T19:32:29;126.90;;;60.88;;
63534;SDS011;55128;50.230;18.944;2023-02-08T19:37:29;120.32;;;58.17;;
63534;SDS011;55128;50.230;18.944;2023-02-08T19:42:33;115.30;;;54.87;;
63534;SDS011;55128;50.230;18.944;2023-02-08T19:47:35;112.78;;;60.33;;
63534;SDS011;55128;50.230;18.944;2023-02-08T19:52:41;131.95;;;67.57;;
63534;SDS011;55128;50.230;18.944;2023-02-08T19:57:42;206.20;;;95.68;;
63534;SDS011;55128;50.230;18.944;2023-02-08T20:02:42;138.38;;;67.93;;
63534;SDS011;55128;50.230;18.944;2023-02-08T20:07:43;129.10;;;58.58;;
63534;SDS011;55128;50.230;18.944;2023-02-08T20:12:43;98.18;;;50.63;;
63534;SDS011;55128;50.230;18.944;2023-02-08T20:18:07;94.57;;;50.38;;
63534;SDS011;55128;50.230;18.944;2023-02-08T20:23:12;237.70;;;86.50;;
63534;SDS011;55128;50.230;18.944;2023-02-08T20:28:13;182.47;;;74.70;;
63534;SDS011;55128;50.230;18.944;2023-02-08T20:33:17;230.90;;;88.10;;
63534;SDS011;55128;50.230;18.944;2023-02-08T20:38:19;181.75;;;75.60;;
63534;SDS011;55128;50.230;18.944;2023-02-08T20:43:25;182.55;;;71.78;;
63534;SDS011;55128;50.230;18.944;2023-02-08T20:48:36;102.10;;;52.08;;
63534;SDS011;55128;50.230;18.944;2023-02-08T20:53:39;122.72;;;52.20;;
63534;SDS011;55128;50.230;18.944;2023-02-08T20:58:41;93.13;;;45.15;;
63534;SDS011;55128;50.230;18.944;2023-02-08T21:03:42;82.95;;;40.75;;
63534;SDS011;55128;50.230;18.944;2023-02-08T21:08:42;82.07;;;39.00;;
63534;SDS011;55128;50.230;18.944;2023-02-08T21:13:43;85.78;;;39.15;;
63534;SDS011;55128;50.230;18.944;2023-02-08T21:18:46;90.22;;;39.50;;
63534;SDS011;55128;50.230;18.944;2023-02-08T21:24:03;143.27;;;62.83;;
63534;SDS011;55128;50.230;18.944;2023-02-08T21:29:04;117.65;;;50.50;;
63534;SDS011;55128;50.230;18.944;2023-02-08T21:34:06;385.67;;;168.05;;
63534;SDS011;55128;50.230;18.944;2023-02-08T21:39:06;181.20;;;79.00;;
63534;SDS011;55128;50.230;18.944;2023-02-08T21:44:07;140.80;;;63.50;;
63534;SDS011;55128;50.230;18.944;2023-02-08T21:49:08;185.15;;;84.45;;
63534;SDS011;55128;50.230;18.944;2023-02-08T21:54:28;154.85;;;76.60;;
63534;SDS011;55128;50.230;18.944;2023-02-08T22:04:55;113.53;;;55.97;;
63534;SDS011;55128;50.230;18.944;2023-02-08T22:10:16;119.60;;;53.08;;
63534;SDS011;55128;50.230;18.944;2023-02-08T22:15:19;114.23;;;54.20;;
63534;SDS011;55128;50.230;18.944;2023-02-08T22:20:21;234.73;;;84.40;;
63534;SDS011;55128;50.230;18.944;2023-02-08T22:25:22;159.57;;;64.78;;
63534;SDS011;55128;50.230;18.944;2023-02-08T22:30:23;149.65;;;62.95;;
63534;SDS011;55128;50.230;18.944;2023-02-08T22:35:23;125.43;;;56.73;;
63534;SDS011;55128;50.230;18.944;2023-02-08T22:40:23;113.57;;;48.92;;
63534;SDS011;55128;50.230;18.944;2023-02-08T22:45:24;105.70;;;50.47;;
63534;SDS011;55128;50.230;18.944;2023-02-08T22:50:24;124.63;;;54.13;;
63534;SDS011;55128;50.230;18.944;2023-02-08T22:55:24;141.75;;;57.65;;
63534;SDS011;55128;50.230;18.944;2023-02-08T23:00:25;134.77;;;56.38;;
63534;SDS011;55128;50.230;18.944;2023-02-08T23:05:25;184.88;;;74.13;;
63534;SDS011;55128;50.230;18.944;2023-02-08T23:10:25;170.38;;;66.10;;
63534;SDS011;55128;50.230;18.944;2023-02-08T23:15:26;147.88;;;63.85;;
63534;SDS011;55128;50.230;18.944;2023-02-08T23:20:26;141.70;;;59.50;;
63534;SDS011;55128;50.230;18.944;2023-02-08T23:25:27;133.57;;;54.35;;
63534;SDS011;55128;50.230;18.944;2023-02-08T23:30:27;146.88;;;57.83;;
63534;SDS011;55128;50.230;18.944;2023-02-08T23:35:27;139.95;;;59.72;;
63534;SDS011;55128;50.230;18.944;2023-02-08T23:40:28;110.18;;;50.75;;
63534;SDS011;55128;50.230;18.944;2023-02-08T23:45:28;117.68;;;51.50;;
63534;SDS011;55128;50.230;18.944;2023-02-08T23:50:30;115.47;;;53.83;;
63534;SDS011;55128;50.230;18.944;2023-02-08T23:55:30;92.38;;;43.45;;
